createdAt,value
2018-02-16T00:02:07.310Z,25.04
2018-02-16T00:04:34.722Z,24.96
2018-02-16T00:07:02.098Z,25.11
2018-02-16T00:09:29.479Z,25.22
2018-02-16T00:11:56.871Z,25.23
2018-02-16T00:14:24.240Z,25.11
2018-02-16T00:16:51.634Z,25.06
2018-02-16T00:19:19.091Z,24.94
2018-02-16T00:21:46.579Z,25.11
2018-02-16T00:24:14.021Z,25.32
2018-02-16T00:26:41.430Z,25.27
2018-02-16T00:29:08.831Z,25.22
2018-02-16T00:31:36.245Z,25.25
2018-02-16T00:34:03.619Z,25.22
2018-02-16T00:36:31.024Z,25.31
2018-02-16T00:38:58.595Z,25.15
2018-02-16T00:41:25.964Z,25.25
2018-02-16T00:43:53.324Z,25.33
2018-02-16T00:46:20.820Z,25.13
2018-02-16T00:48:48.269Z,25.05
2018-02-16T00:51:15.779Z,25.28
2018-02-16T00:53:43.162Z,25.17
2018-02-16T00:56:10.844Z,25.28
2018-02-16T00:58:38.237Z,25.33
2018-02-16T01:01:05.640Z,25.31
2018-02-16T01:03:33.211Z,25.20
2018-02-16T01:06:00.569Z,25.00
2018-02-16T01:08:27.932Z,25.26
2018-02-16T01:10:55.315Z,25.30
2018-02-16T01:13:22.883Z,25.34
2018-02-16T01:15:50.295Z,25.20
2018-02-16T01:18:17.664Z,25.49
2018-02-16T01:20:45.250Z,25.31
2018-02-16T01:23:12.609Z,25.25
2018-02-16T01:25:40.019Z,25.27
2018-02-16T01:28:07.461Z,25.42
2018-02-16T01:30:34.820Z,25.42
2018-02-16T01:33:02.224Z,25.48
2018-02-16T01:35:29.616Z,25.47
2018-02-16T01:37:56.986Z,25.50
2018-02-16T01:40:24.406Z,25.43
2018-02-16T01:42:52.012Z,25.53
2018-02-16T01:45:19.547Z,25.56
2018-02-16T01:47:46.910Z,25.56
2018-02-16T01:50:14.295Z,25.79
2018-02-16T01:52:41.765Z,25.75
2018-02-16T01:55:09.190Z,25.65
2018-02-16T01:57:36.685Z,25.78
2018-02-16T02:00:04.156Z,25.62
2018-02-16T02:02:34.374Z,24.72
2018-02-16T02:05:01.737Z,25.15
2018-02-16T02:07:29.104Z,25.30
2018-02-16T02:09:56.474Z,25.41
2018-02-16T02:12:23.839Z,25.75
2018-02-16T02:14:51.204Z,26.03
2018-02-16T02:17:18.862Z,26.23
2018-02-16T02:19:46.303Z,26.26
2018-02-16T02:22:13.659Z,26.31
2018-02-16T02:24:41.008Z,26.32
2018-02-16T02:27:08.457Z,26.36
2018-02-16T02:29:35.839Z,26.41
2018-02-16T02:32:03.202Z,26.53
2018-02-16T02:34:30.612Z,26.43
2018-02-16T02:36:57.952Z,26.45
2018-02-16T02:39:25.540Z,26.46
2018-02-16T02:41:53.029Z,26.50
2018-02-16T02:44:20.423Z,26.53
2018-02-16T02:46:47.796Z,26.66
2018-02-16T02:49:15.164Z,26.53
2018-02-16T02:51:42.569Z,26.50
2018-02-16T02:54:10.184Z,26.60
2018-02-16T02:56:37.709Z,26.32
2018-02-16T02:59:05.140Z,26.23
2018-02-16T03:01:32.495Z,26.31
2018-02-16T03:03:59.860Z,26.46
2018-02-16T03:06:27.215Z,26.49
2018-02-16T03:08:54.726Z,26.55
2018-02-16T03:11:22.118Z,26.53
2018-02-16T03:13:49.687Z,26.74
2018-02-16T03:16:17.347Z,26.74
2018-02-16T03:18:44.828Z,26.91
2018-02-16T03:21:12.258Z,26.87
2018-02-16T03:23:39.687Z,26.72
2018-02-16T03:26:07.048Z,26.65
2018-02-16T03:28:34.467Z,26.54
2018-02-16T03:31:01.870Z,26.25
2018-02-16T03:33:29.419Z,26.58
2018-02-16T03:35:56.782Z,26.49
2018-02-16T03:38:24.243Z,26.19
2018-02-16T03:40:51.678Z,26.25
2018-02-16T03:43:19.039Z,26.44
2018-02-16T03:45:46.602Z,26.49
2018-02-16T03:48:14.063Z,26.79
2018-02-16T03:50:41.479Z,26.60
2018-02-16T03:53:08.906Z,26.59
2018-02-16T03:55:36.318Z,26.69
2018-02-16T03:58:03.731Z,26.72
2018-02-16T04:00:31.319Z,26.68
2018-02-16T04:02:58.776Z,26.86
2018-02-16T04:05:26.151Z,26.92
2018-02-16T04:07:53.520Z,26.87
2018-02-16T04:10:20.921Z,26.82
2018-02-16T04:12:48.284Z,26.92
2018-02-16T04:15:15.636Z,26.84
2018-02-16T04:17:43.002Z,26.84
2018-02-16T04:20:10.422Z,26.76
2018-02-16T04:22:37.774Z,26.92
2018-02-16T04:25:05.214Z,26.61
2018-02-16T04:27:32.586Z,26.39
2018-02-16T04:30:00.175Z,26.63
2018-02-16T04:32:27.535Z,26.22
2018-02-16T04:34:54.922Z,26.15
2018-02-16T04:37:22.282Z,26.07
2018-02-16T04:39:49.746Z,26.09
2018-02-16T04:42:17.114Z,26.16
2018-02-16T04:44:44.678Z,26.26
2018-02-16T04:47:12.089Z,26.11
2018-02-16T04:49:39.486Z,26.27
2018-02-16T04:52:06.902Z,26.50
2018-02-16T04:54:34.344Z,26.49
2018-02-16T04:57:01.706Z,26.37
2018-02-16T04:59:29.097Z,26.34
2018-02-16T05:01:56.691Z,26.24
2018-02-16T05:06:57.296Z,26.14
2018-02-16T05:09:26.127Z,26.23
2018-02-16T05:11:53.538Z,26.19
2018-02-16T05:14:20.882Z,26.21
2018-02-16T05:16:48.312Z,26.04
2018-02-16T05:19:15.684Z,26.04
2018-02-16T05:21:43.186Z,25.78
2018-02-16T05:24:10.603Z,25.85
2018-02-16T05:26:38.233Z,25.75
2018-02-16T05:29:05.674Z,25.61
2018-02-16T05:31:33.039Z,25.56
2018-02-16T05:34:00.557Z,25.91
2018-02-16T05:36:28.497Z,25.71
2018-02-16T05:38:55.860Z,25.93
2018-02-16T05:41:23.238Z,25.82
2018-02-16T05:43:50.622Z,25.90
2018-02-16T05:46:18.302Z,25.65
2018-02-16T05:48:45.751Z,25.80
2018-02-16T05:51:13.113Z,25.72
2018-02-16T05:53:40.558Z,25.62
2018-02-16T05:56:07.996Z,25.65
2018-02-16T05:58:35.367Z,25.91
2018-02-16T06:01:02.783Z,25.81
2018-02-16T06:03:30.192Z,25.68
2018-02-16T06:05:57.584Z,25.61
2018-02-16T06:08:26.609Z,25.55
2018-02-16T06:10:53.981Z,25.74
2018-02-16T06:13:21.399Z,25.79
2018-02-16T06:15:49.054Z,26.00
2018-02-16T06:18:16.462Z,26.17
2018-02-16T06:20:43.837Z,26.50
2018-02-16T06:23:11.302Z,26.48
2018-02-16T06:25:38.787Z,26.49
2018-02-16T06:28:06.600Z,26.63
2018-02-16T06:30:34.053Z,26.56
2018-02-16T06:33:01.556Z,26.76
2018-02-16T06:35:29.054Z,26.67
2018-02-16T06:37:56.484Z,26.73
2018-02-16T06:40:23.857Z,26.90
2018-02-16T06:42:51.293Z,26.67
2018-02-16T06:45:18.724Z,26.56
2018-02-16T06:47:46.916Z,26.65
2018-02-16T06:50:14.599Z,27.03
2018-02-16T06:52:42.012Z,26.85
2018-02-16T06:55:09.626Z,27.08
2018-02-16T06:57:37.151Z,26.93
2018-02-16T07:00:04.754Z,26.72
2018-02-16T07:02:32.185Z,27.03
2018-02-16T07:04:59.752Z,26.75
2018-02-16T07:07:27.289Z,26.58
2018-02-16T07:09:54.699Z,26.92
2018-02-16T07:12:22.375Z,26.69
2018-02-16T07:14:51.669Z,27.11
2018-02-16T07:17:19.372Z,26.95
2018-02-16T07:19:46.840Z,26.73
2018-02-16T07:22:14.624Z,26.51
2018-02-16T07:24:42.289Z,26.91
2018-02-16T07:27:09.680Z,26.85
2018-02-16T07:29:45.223Z,26.89
2018-02-16T07:32:13.070Z,27.23
2018-02-16T07:34:40.511Z,26.41
2018-02-16T07:37:07.909Z,26.61
2018-02-16T07:39:35.339Z,26.42
2018-02-16T07:42:02.899Z,26.37
2018-02-16T07:44:30.532Z,26.51
2018-02-16T07:46:59.266Z,26.44
2018-02-16T07:49:26.909Z,26.73
2018-02-16T07:51:54.492Z,26.63
2018-02-16T07:54:21.947Z,26.75
2018-02-16T07:56:53.033Z,26.50
2018-02-16T07:59:21.092Z,26.88
2018-02-16T08:01:48.840Z,26.72
2018-02-16T08:04:21.706Z,26.66
2018-02-16T08:06:52.076Z,26.89
2018-02-16T08:09:20.063Z,26.92
2018-02-16T08:11:47.593Z,26.98
2018-02-16T08:14:15.329Z,26.42
2018-02-16T08:16:42.727Z,27.20
2018-02-16T08:19:10.211Z,27.16
2018-02-16T08:21:37.692Z,27.17
2018-02-16T08:24:05.141Z,27.20
2018-02-16T08:26:32.558Z,27.05
2018-02-16T08:29:00.024Z,27.22
2018-02-16T08:31:27.424Z,27.31
2018-02-16T08:33:54.819Z,27.12
2018-02-16T08:36:22.426Z,27.19
2018-02-16T08:39:02.655Z,26.95
2018-02-16T08:41:30.128Z,27.05
2018-02-16T08:43:57.666Z,27.13
2018-02-16T08:46:26.414Z,27.37
2018-02-16T08:48:54.232Z,27.01
2018-02-16T08:51:21.945Z,27.11
2018-02-16T08:53:49.646Z,26.81
2018-02-16T09:01:42.554Z,26.80
2018-02-16T09:04:10.544Z,26.65
2018-02-16T09:06:39.582Z,26.43
2018-02-16T09:09:07.189Z,26.39
2018-02-16T09:11:38.154Z,26.62
2018-02-16T09:14:06.755Z,26.39
2018-02-16T09:16:34.427Z,26.36
2018-02-16T09:19:01.931Z,26.61
2018-02-16T09:21:29.423Z,26.61
2018-02-16T09:23:56.846Z,26.49
2018-02-16T09:26:24.784Z,26.50
2018-02-16T09:28:52.211Z,26.18
2018-02-16T09:31:19.626Z,26.43
2018-02-16T09:33:47.215Z,26.39
2018-02-16T09:36:14.707Z,26.26
2018-02-16T09:38:42.160Z,26.23
2018-02-16T09:41:09.597Z,26.25
2018-02-16T09:43:37.035Z,26.29
2018-02-16T09:46:04.430Z,26.00
2018-02-16T09:48:31.814Z,26.53
2018-02-16T09:50:59.275Z,26.49
2018-02-16T09:53:26.736Z,26.40
2018-02-16T09:55:54.184Z,26.34
2018-02-16T09:58:21.653Z,26.21
2018-02-16T10:00:49.172Z,26.29
2018-02-16T10:03:16.642Z,26.37
2018-02-16T10:05:44.034Z,26.26
2018-02-16T10:08:11.402Z,26.41
2018-02-16T10:10:38.782Z,26.24
2018-02-16T10:13:06.223Z,26.43
2018-02-16T10:15:33.655Z,26.71
2018-02-16T10:18:01.038Z,26.41
2018-02-16T10:20:28.402Z,26.33
2018-02-16T10:22:55.834Z,26.44
2018-02-16T10:25:23.292Z,26.55
2018-02-16T10:27:50.677Z,26.17
2018-02-16T10:30:18.185Z,26.25
2018-02-16T10:32:45.603Z,26.45
2018-02-16T10:35:13.188Z,26.48
2018-02-16T10:37:40.567Z,26.32
2018-02-16T10:40:07.983Z,26.44
2018-02-16T10:42:35.413Z,26.64
2018-02-16T10:45:02.917Z,26.74
2018-02-16T10:47:30.586Z,26.78
2018-02-16T10:49:58.173Z,26.80
2018-02-16T10:52:25.589Z,26.97
2018-02-16T10:54:52.995Z,26.91
2018-02-16T10:57:20.381Z,26.95
2018-02-16T10:59:47.850Z,26.87
2018-02-16T11:02:15.291Z,29.15
2018-02-16T11:04:42.733Z,27.37
2018-02-16T11:07:10.147Z,27.12
2018-02-16T11:09:37.598Z,26.99
2018-02-16T11:12:05.051Z,27.08
2018-02-16T11:14:32.463Z,27.11
2018-02-16T11:16:59.905Z,27.09
2018-02-16T11:19:27.360Z,27.11
2018-02-16T11:21:54.734Z,27.13
2018-02-16T11:24:22.156Z,27.55
2018-02-16T11:26:49.575Z,27.69
2018-02-16T11:29:17.047Z,27.29
2018-02-16T11:31:44.794Z,27.31
2018-02-16T11:34:13.370Z,27.01
2018-02-16T11:36:40.879Z,26.92
2018-02-16T11:39:09.969Z,26.50
2018-02-16T11:41:37.531Z,26.86
2018-02-16T11:44:05.576Z,26.95
2018-02-16T11:46:33.065Z,26.74
2018-02-16T11:49:00.580Z,26.72
2018-02-16T11:51:28.144Z,26.71
2018-02-16T11:53:55.738Z,26.80
2018-02-16T11:56:23.361Z,26.49
2018-02-16T11:58:51.729Z,26.76
2018-02-16T12:01:19.675Z,26.63
2018-02-16T12:03:47.158Z,26.55
2018-02-16T12:06:16.116Z,26.79
2018-02-16T12:08:43.577Z,26.67
2018-02-16T12:11:11.092Z,26.72
2018-02-16T12:18:48.384Z,27.22
2018-02-16T12:21:16.237Z,27.03
2018-02-16T12:23:43.795Z,26.90
2018-02-16T12:26:11.378Z,26.95
2018-02-16T12:28:39.002Z,26.78
2018-02-16T12:31:06.440Z,27.16
2018-02-16T12:33:33.924Z,27.01
2018-02-16T12:36:02.256Z,26.95
2018-02-16T12:38:29.914Z,26.89
2018-02-16T12:40:57.701Z,27.25
2018-02-16T12:43:25.387Z,27.44
2018-02-16T12:45:52.956Z,27.23
2018-02-16T12:48:20.415Z,26.62
2018-02-16T12:50:47.876Z,26.48
2018-02-16T12:53:15.841Z,26.86
2018-02-16T12:55:44.839Z,27.05
2018-02-16T12:58:12.359Z,26.94
2018-02-16T13:00:40.011Z,27.01
2018-02-16T13:03:07.467Z,27.11
2018-02-16T13:05:35.266Z,27.04
2018-02-16T13:08:02.803Z,27.09
2018-02-16T13:10:30.195Z,27.34
2018-02-16T13:12:59.468Z,27.33
2018-02-16T13:15:28.227Z,27.20
2018-02-16T13:17:56.221Z,27.15
2018-02-16T13:20:25.334Z,27.04
2018-02-16T13:22:54.380Z,27.40
2018-02-16T13:25:22.260Z,27.11
2018-02-16T13:27:50.055Z,27.21
2018-02-16T13:30:17.557Z,27.27
2018-02-16T13:32:45.309Z,27.33
